createdAt,value
2017-07-26T00:02:03.579Z,15.60
2017-07-26T00:04:31.193Z,15.60
2017-07-26T00:06:58.733Z,15.50
2017-07-26T00:09:26.290Z,15.40
2017-07-26T00:11:54.564Z,15.40
2017-07-26T00:14:22.109Z,15.30
2017-07-26T00:16:50.381Z,15.30
2017-07-26T00:19:17.894Z,15.30
2017-07-26T00:21:45.409Z,15.40
2017-07-26T00:24:12.951Z,15.40
2017-07-26T00:26:40.806Z,15.40
2017-07-26T00:29:08.329Z,15.50
2017-07-26T00:31:35.878Z,15.50
2017-07-26T00:34:03.425Z,15.60
2017-07-26T00:36:30.982Z,15.60
2017-07-26T00:38:59.251Z,15.80
2017-07-26T00:41:27.695Z,15.70
2017-07-26T00:43:55.251Z,15.70
2017-07-26T00:46:22.746Z,15.50
2017-07-26T00:48:51.037Z,15.50
2017-07-26T00:51:19.522Z,15.30
2017-07-26T00:53:47.046Z,15.30
2017-07-26T00:56:14.645Z,15.30
2017-07-26T00:58:42.166Z,15.30
2017-07-26T01:01:09.779Z,15.20
2017-07-26T01:03:37.290Z,15.30
2017-07-26T01:06:04.819Z,15.30
2017-07-26T01:08:32.347Z,15.30
2017-07-26T01:10:59.844Z,15.30
2017-07-26T01:13:27.371Z,15.40
2017-07-26T01:15:54.890Z,15.40
2017-07-26T01:18:22.373Z,15.60
2017-07-26T01:20:49.915Z,15.50
2017-07-26T01:23:18.191Z,15.50
2017-07-26T01:25:46.478Z,15.60
2017-07-26T01:28:14.762Z,15.60
2017-07-26T01:30:42.259Z,15.50
2017-07-26T01:33:09.771Z,15.50
2017-07-26T01:35:38.047Z,15.50
2017-07-26T01:38:06.370Z,15.60
2017-07-26T01:40:33.875Z,15.60
2017-07-26T01:43:02.128Z,15.60
2017-07-26T01:45:29.747Z,15.60
2017-07-26T01:47:57.224Z,15.60
2017-07-26T01:50:24.761Z,15.80
2017-07-26T01:52:52.254Z,15.80
2017-07-26T01:55:19.762Z,15.70
2017-07-26T01:57:48.029Z,15.90
2017-07-26T02:00:16.287Z,15.90
2017-07-26T02:02:43.819Z,15.90
2017-07-26T02:05:11.332Z,15.90
2017-07-26T02:07:39.601Z,15.90
2017-07-26T02:10:07.919Z,16.00
2017-07-26T02:12:35.458Z,15.90
2017-07-26T02:15:03.245Z,15.90
2017-07-26T02:17:30.763Z,15.80
2017-07-26T02:19:59.039Z,15.70
2017-07-26T02:22:27.345Z,15.70
2017-07-26T02:24:54.850Z,15.70
2017-07-26T02:27:22.401Z,15.60
2017-07-26T02:29:49.908Z,15.70
2017-07-26T02:32:17.405Z,15.70
2017-07-26T02:34:44.907Z,15.70
2017-07-26T02:37:13.226Z,15.70
2017-07-26T02:39:40.716Z,15.70
2017-07-26T02:42:08.244Z,15.70
2017-07-26T02:44:35.787Z,15.60
2017-07-26T02:47:03.294Z,15.60
2017-07-26T02:49:30.808Z,15.80
2017-07-26T02:51:58.322Z,15.80
2017-07-26T02:54:25.825Z,15.80
2017-07-26T02:56:53.400Z,15.80
2017-07-26T02:59:20.897Z,15.80
2017-07-26T03:01:48.388Z,15.80
2017-07-26T03:04:16.693Z,15.90
2017-07-26T03:06:44.198Z,15.90
2017-07-26T03:09:11.708Z,16.00
2017-07-26T03:11:39.270Z,15.80
2017-07-26T03:14:06.765Z,15.70
2017-07-26T03:16:34.311Z,15.60
2017-07-26T03:19:01.829Z,15.60
2017-07-26T03:21:29.397Z,15.50
2017-07-26T03:23:56.916Z,15.50
2017-07-26T03:26:24.428Z,15.40
2017-07-26T03:28:51.930Z,15.40
2017-07-26T03:31:19.454Z,15.40
2017-07-26T03:33:46.952Z,15.40
2017-07-26T03:36:14.430Z,15.50
2017-07-26T03:38:42.716Z,15.70
2017-07-26T03:41:10.217Z,15.60
2017-07-26T03:43:37.695Z,15.60
2017-07-26T03:46:05.211Z,15.70
2017-07-26T03:48:32.710Z,15.70
2017-07-26T03:51:00.322Z,15.80
2017-07-26T03:53:27.866Z,15.80
2017-07-26T03:55:55.437Z,15.70
2017-07-26T03:58:22.939Z,15.70
2017-07-26T04:00:50.444Z,15.80
2017-07-26T04:03:17.974Z,15.80
2017-07-26T04:05:45.496Z,16.10
2017-07-26T04:08:13.018Z,16.00
2017-07-26T04:10:41.280Z,16.00
2017-07-26T04:13:09.594Z,16.00
2017-07-26T04:15:37.087Z,16.00
2017-07-26T04:18:04.626Z,16.00
2017-07-26T04:20:32.176Z,16.10
2017-07-26T04:22:59.750Z,15.90
2017-07-26T04:25:27.258Z,16.10
2017-07-26T04:27:55.552Z,16.10
2017-07-26T04:30:23.052Z,16.10
2017-07-26T04:32:50.587Z,16.00
2017-07-26T04:35:18.080Z,16.00
2017-07-26T04:37:45.585Z,16.00
2017-07-26T04:40:13.862Z,16.00
2017-07-26T04:42:41.409Z,16.00
2017-07-26T04:45:09.675Z,15.80
2017-07-26T04:47:37.962Z,15.80
2017-07-26T04:50:06.262Z,15.80
2017-07-26T04:52:33.752Z,15.80
2017-07-26T04:55:01.243Z,15.80
2017-07-26T04:57:28.840Z,15.90
2017-07-26T04:59:56.358Z,15.90
2017-07-26T05:02:23.869Z,16.00
2017-07-26T05:04:51.522Z,16.00
2017-07-26T05:07:19.032Z,16.00
2017-07-26T05:09:46.532Z,15.90
2017-07-26T05:12:14.828Z,16.20
2017-07-26T05:14:42.329Z,16.10
2017-07-26T05:17:09.877Z,16.10
2017-07-26T05:19:37.383Z,16.20
2017-07-26T05:22:04.918Z,16.20
2017-07-26T05:24:32.847Z,16.30
2017-07-26T05:27:00.386Z,16.40
2017-07-26T05:29:27.874Z,16.50
2017-07-26T05:31:55.375Z,16.80
2017-07-26T05:34:23.660Z,17.20
2017-07-26T05:36:51.949Z,17.00
2017-07-26T05:39:19.430Z,17.00
2017-07-26T05:41:46.940Z,16.70
2017-07-26T05:44:14.456Z,16.60
2017-07-26T05:46:41.937Z,16.50
2017-07-26T05:49:09.431Z,16.80
2017-07-26T05:51:37.856Z,16.10
2017-07-26T05:54:05.335Z,16.10
2017-07-26T05:56:32.858Z,16.30
2017-07-26T05:59:00.357Z,16.20
2017-07-26T06:01:27.857Z,16.20
2017-07-26T06:03:55.445Z,16.20
2017-07-26T06:06:22.971Z,16.10
2017-07-26T06:08:50.480Z,16.20
2017-07-26T06:11:17.978Z,16.30
2017-07-26T06:13:46.252Z,16.60
2017-07-26T06:16:14.566Z,16.60
2017-07-26T06:18:42.077Z,16.60
2017-07-26T06:21:10.337Z,17.00
2017-07-26T06:23:37.975Z,17.00
2017-07-26T06:26:05.467Z,17.40
2017-07-26T06:28:33.066Z,17.50
2017-07-26T06:31:00.553Z,17.30
2017-07-26T06:33:28.066Z,17.40
2017-07-26T06:35:55.573Z,17.60
2017-07-26T06:38:23.086Z,17.30
2017-07-26T06:40:51.453Z,16.80
2017-07-26T06:43:19.703Z,16.80
2017-07-26T06:45:47.231Z,16.80
2017-07-26T06:48:14.760Z,16.80
2017-07-26T06:50:43.033Z,17.40
2017-07-26T06:53:11.300Z,17.80
2017-07-26T06:55:39.572Z,17.60
2017-07-26T06:58:07.060Z,17.60
2017-07-26T07:00:34.569Z,17.60
2017-07-26T07:03:02.095Z,17.50
2017-07-26T07:05:29.605Z,17.40
2017-07-26T07:07:57.113Z,17.30
2017-07-26T07:10:24.605Z,17.10
2017-07-26T07:12:52.132Z,17.30
2017-07-26T07:15:19.617Z,17.10
2017-07-26T07:17:47.244Z,17.20
2017-07-26T07:20:14.788Z,17.20
2017-07-26T07:22:42.282Z,17.00
2017-07-26T07:25:09.783Z,16.90
2017-07-26T07:27:37.315Z,17.10
2017-07-26T07:30:04.801Z,17.20
2017-07-26T07:32:32.305Z,17.20
2017-07-26T07:34:59.850Z,17.30
2017-07-26T07:37:27.362Z,17.40
2017-07-26T07:39:54.870Z,17.20
2017-07-26T07:42:22.400Z,17.10
2017-07-26T07:44:50.661Z,18.10
2017-07-26T07:47:18.260Z,18.10
2017-07-26T07:49:45.767Z,18.00
2017-07-26T07:52:14.046Z,17.80
2017-07-26T07:54:41.597Z,17.70
2017-07-26T07:57:09.102Z,17.70
2017-07-26T07:59:36.633Z,17.80
2017-07-26T08:02:04.136Z,17.90
2017-07-26T08:04:31.636Z,17.80
2017-07-26T08:06:59.160Z,17.80
2017-07-26T08:09:26.659Z,17.90
2017-07-26T08:11:54.193Z,18.20
2017-07-26T08:14:21.708Z,18.20
2017-07-26T08:16:49.967Z,18.50
2017-07-26T08:19:17.464Z,18.40
2017-07-26T08:21:44.977Z,18.50
2017-07-26T08:24:12.475Z,18.70
2017-07-26T08:26:39.965Z,18.70
2017-07-26T08:29:07.505Z,18.60
2017-07-26T08:31:35.012Z,18.40
2017-07-26T08:34:02.548Z,18.30
2017-07-26T08:36:30.058Z,18.60
2017-07-26T08:38:59.150Z,18.90
2017-07-26T08:41:27.435Z,19.30
2017-07-26T08:43:54.943Z,19.20
2017-07-26T08:46:22.440Z,19.50
2017-07-26T08:48:50.712Z,19.30
2017-07-26T08:51:18.196Z,19.30
2017-07-26T08:53:45.781Z,18.70
2017-07-26T08:56:13.306Z,18.50
2017-07-26T08:58:40.814Z,18.50
2017-07-26T09:01:08.342Z,19.10
2017-07-26T09:03:35.866Z,19.20
2017-07-26T09:06:04.245Z,19.10
2017-07-26T09:08:32.527Z,19.60
2017-07-26T09:11:00.836Z,19.20
2017-07-26T09:13:28.327Z,19.20
2017-07-26T09:15:55.862Z,18.90
2017-07-26T09:18:23.398Z,19.40
2017-07-26T09:20:51.667Z,18.70
2017-07-26T09:23:19.937Z,19.20
2017-07-26T09:25:48.235Z,19.00
2017-07-26T09:28:15.811Z,19.00
2017-07-26T09:30:43.361Z,18.90
2017-07-26T09:33:10.938Z,18.90
2017-07-26T09:35:38.437Z,18.90
2017-07-26T09:38:05.943Z,18.70
2017-07-26T09:40:33.455Z,18.50
2017-07-26T09:43:01.802Z,18.50
2017-07-26T09:45:29.352Z,18.50
2017-07-26T09:47:56.849Z,18.90
2017-07-26T09:50:24.351Z,18.90
2017-07-26T09:52:51.880Z,18.70
2017-07-26T09:55:19.463Z,18.60
2017-07-26T09:57:47.129Z,18.60
2017-07-26T10:00:14.653Z,18.90
2017-07-26T10:02:42.138Z,19.20
2017-07-26T10:05:10.419Z,19.50
2017-07-26T10:07:38.692Z,19.70
2017-07-26T10:10:06.961Z,19.80
2017-07-26T10:12:34.470Z,19.80
2017-07-26T10:15:02.003Z,19.70
2017-07-26T10:17:29.558Z,19.10
2017-07-26T10:19:57.102Z,18.80
2017-07-26T10:22:24.695Z,19.10
2017-07-26T10:24:52.199Z,19.50
2017-07-26T10:27:19.713Z,19.40
2017-07-26T10:29:47.217Z,19.60
2017-07-26T10:32:15.684Z,19.80
2017-07-26T10:34:43.223Z,20.60
2017-07-26T10:37:10.947Z,20.80
2017-07-26T10:39:38.554Z,20.80
2017-07-26T10:42:06.069Z,20.40
2017-07-26T10:44:33.625Z,20.50
2017-07-26T10:47:01.152Z,20.40
2017-07-26T10:49:28.691Z,21.60
2017-07-26T10:51:56.206Z,21.80
2017-07-26T10:54:24.543Z,22.00
2017-07-26T10:56:52.130Z,21.40
2017-07-26T10:59:20.409Z,20.50
2017-07-26T11:01:48.702Z,21.10
2017-07-26T11:04:16.249Z,21.10
2017-07-26T11:06:44.533Z,21.60
2017-07-26T11:09:13.012Z,21.20
2017-07-26T11:11:41.332Z,21.20
2017-07-26T11:14:08.930Z,21.20
2017-07-26T11:16:36.461Z,21.00
2017-07-26T11:19:04.015Z,21.10
2017-07-26T11:21:31.523Z,21.10
2017-07-26T11:26:34.006Z,20.60
2017-07-26T11:29:01.519Z,20.50
2017-07-26T11:31:29.025Z,20.70
2017-07-26T11:33:56.551Z,20.20
2017-07-26T11:36:24.182Z,20.40
2017-07-26T11:38:51.709Z,20.10
2017-07-26T11:41:19.257Z,19.80
2017-07-26T11:43:46.798Z,20.20
2017-07-26T11:46:14.312Z,20.20
2017-07-26T11:48:42.071Z,19.90
2017-07-26T11:51:10.335Z,20.60
2017-07-26T11:53:38.599Z,20.80
2017-07-26T11:56:06.113Z,20.80
2017-07-26T11:58:33.625Z,20.10
2017-07-26T12:01:01.925Z,20.00
2017-07-26T12:03:29.463Z,19.90
2017-07-26T12:05:57.798Z,19.70
2017-07-26T12:08:25.283Z,19.70
2017-07-26T12:10:52.793Z,19.70
2017-07-26T12:13:20.329Z,19.10
2017-07-26T12:15:48.621Z,18.50
2017-07-26T12:18:16.392Z,18.50
2017-07-26T12:20:43.931Z,18.40
2017-07-26T12:23:12.218Z,18.80
2017-07-26T12:25:39.752Z,18.80
2017-07-26T12:28:07.249Z,18.80
2017-07-26T12:30:34.745Z,18.90
2017-07-26T12:33:02.265Z,19.10
2017-07-26T12:35:29.769Z,18.90
2017-07-26T12:37:57.367Z,18.60
2017-07-26T12:40:25.631Z,18.70
2017-07-26T12:42:53.890Z,18.90
2017-07-26T12:45:21.410Z,18.90
2017-07-26T12:47:48.895Z,18.60
2017-07-26T12:50:16.473Z,18.40
2017-07-26T12:52:44.009Z,18.40
2017-07-26T12:55:11.501Z,18.20
2017-07-26T12:57:39.789Z,18.80
2017-07-26T13:00:08.050Z,19.20
2017-07-26T13:02:35.580Z,19.20
2017-07-26T13:05:03.150Z,19.50
2017-07-26T13:07:31.581Z,19.90
2017-07-26T13:09:59.109Z,20.40
2017-07-26T13:12:26.612Z,20.20
2017-07-26T13:14:54.140Z,20.00
2017-07-26T13:17:22.392Z,19.40
2017-07-26T13:19:49.911Z,19.40
2017-07-26T13:22:17.435Z,19.40
2017-07-26T13:24:45.706Z,19.30
2017-07-26T13:27:14.003Z,19.30
2017-07-26T13:29:41.582Z,19.20
2017-07-26T13:32:09.081Z,18.90
2017-07-26T13:34:36.930Z,18.70
2017-07-26T13:37:04.552Z,18.60
2017-07-26T13:39:32.057Z,18.60
2017-07-26T13:41:59.555Z,18.00
2017-07-26T13:44:27.841Z,18.10
2017-07-26T13:46:55.362Z,18.10
2017-07-26T13:49:22.892Z,17.80
2017-07-26T13:51:50.413Z,17.70
2017-07-26T13:54:18.688Z,17.80
2017-07-26T13:56:46.978Z,17.80
2017-07-26T13:59:14.534Z,17.80
2017-07-26T14:01:42.036Z,17.70
2017-07-26T14:04:09.550Z,17.60
2017-07-26T14:06:37.061Z,17.90
2017-07-26T14:09:04.607Z,18.00
2017-07-26T14:11:32.141Z,18.10
2017-07-26T14:13:59.652Z,17.70
2017-07-26T14:16:27.389Z,17.80
2017-07-26T14:18:54.908Z,17.70
2017-07-26T14:21:22.416Z,17.60
2017-07-26T14:23:49.946Z,17.50
2017-07-26T14:26:17.475Z,17.60
2017-07-26T14:28:45.746Z,17.10
2017-07-26T14:31:13.251Z,17.10
2017-07-26T14:33:40.806Z,17.00
2017-07-26T14:36:08.304Z,17.00
2017-07-26T14:38:35.819Z,17.00
2017-07-26T14:41:03.353Z,16.80
2017-07-26T14:43:31.614Z,16.80
2017-07-26T14:45:59.886Z,16.80
2017-07-26T14:48:27.506Z,16.80
2017-07-26T14:50:55.023Z,16.80
2017-07-26T14:53:23.318Z,16.90
2017-07-26T14:55:50.830Z,16.90
2017-07-26T14:58:18.320Z,16.60
2017-07-26T15:00:46.726Z,16.40
2017-07-26T15:03:14.250Z,16.40
2017-07-26T15:05:42.533Z,16.40
2017-07-26T15:08:10.852Z,16.40
2017-07-26T15:10:38.394Z,16.30
2017-07-26T15:13:05.920Z,16.50
2017-07-26T15:15:34.209Z,16.30
2017-07-26T15:18:02.467Z,16.40
2017-07-26T15:20:30.079Z,16.40
2017-07-26T15:22:57.597Z,16.40
2017-07-26T15:25:25.858Z,16.50
2017-07-26T15:27:53.357Z,16.50
2017-07-26T15:30:20.882Z,16.50
2017-07-26T15:32:48.381Z,16.40
2017-07-26T15:35:15.860Z,16.20
2017-07-26T15:37:43.386Z,16.30
2017-07-26T15:40:10.868Z,16.30
2017-07-26T15:42:38.702Z,16.30
2017-07-26T15:45:06.961Z,16.20
2017-07-26T15:47:35.221Z,16.10
2017-07-26T15:50:02.717Z,16.00
2017-07-26T15:52:30.991Z,16.20
2017-07-26T15:54:59.262Z,16.10
2017-07-26T15:57:27.536Z,16.00
2017-07-26T15:59:55.883Z,16.00
2017-07-26T16:02:23.638Z,16.00
2017-07-26T16:04:51.141Z,16.10
2017-07-26T16:07:19.423Z,15.90
2017-07-26T16:09:47.833Z,16.00
2017-07-26T16:12:15.347Z,15.90
2017-07-26T16:14:42.858Z,16.00
2017-07-26T16:28:31.645Z,24.40
2017-07-26T16:33:58.262Z,22.10
2017-07-26T16:36:24.392Z,21.10
2017-07-26T16:38:50.562Z,21.20
2017-07-26T16:41:17.423Z,20.90
2017-07-26T16:43:43.546Z,20.90
2017-07-26T16:48:35.790Z,20.90
2017-07-26T16:51:02.833Z,20.90
2017-07-26T16:53:29.683Z,21.00
2017-07-26T16:55:55.823Z,21.00
2017-07-26T16:58:21.944Z,21.00
2017-07-26T17:00:48.095Z,21.00
2017-07-26T17:03:14.219Z,21.10
2017-07-26T17:05:40.341Z,21.10
2017-07-26T17:08:06.488Z,21.10
2017-07-26T17:10:32.630Z,21.20
2017-07-26T17:12:58.763Z,21.20
2017-07-26T17:15:24.978Z,21.20
2017-07-26T17:17:51.107Z,20.80
2017-07-26T17:21:52.916Z,17.60
2017-07-26T17:24:19.950Z,16.10
2017-07-26T17:26:46.981Z,16.79
2017-07-26T17:29:13.191Z,16.45
2017-07-26T17:31:39.351Z,16.16
2017-07-26T17:34:05.450Z,16.16
2017-07-26T17:36:31.651Z,16.17
2017-07-26T17:38:57.877Z,16.18
2017-07-26T17:41:24.002Z,16.33
2017-07-26T17:43:50.113Z,16.49
2017-07-26T17:46:16.392Z,16.50
2017-07-26T17:48:42.579Z,16.44
2017-07-26T17:51:08.766Z,16.10
2017-07-26T17:53:34.912Z,16.01
2017-07-26T17:56:08.951Z,15.99
2017-07-26T17:58:35.301Z,15.97
2017-07-26T18:01:01.477Z,16.04
2017-07-26T18:03:29.434Z,16.05
2017-07-26T18:05:55.589Z,15.94
2017-07-26T18:08:21.780Z,16.00
2017-07-26T18:10:48.271Z,16.01
2017-07-26T18:13:14.440Z,15.99
2017-07-26T18:15:40.598Z,16.04
2017-07-26T18:18:07.517Z,16.11
2017-07-26T18:20:33.636Z,15.98
2017-07-26T18:22:59.800Z,15.92
2017-07-26T18:25:26.714Z,15.86
2017-07-26T18:27:52.848Z,15.85
2017-07-26T18:30:19.719Z,15.91
2017-07-26T18:32:46.628Z,16.02
2017-07-26T18:35:12.784Z,15.94
2017-07-26T18:37:39.803Z,15.81
2017-07-26T18:40:05.952Z,15.98
2017-07-26T18:42:32.862Z,16.07
2017-07-26T18:44:59.030Z,15.96
2017-07-26T18:47:25.895Z,16.01
2017-07-26T18:49:52.060Z,16.12
2017-07-26T18:52:18.264Z,16.07
2017-07-26T18:54:44.412Z,16.13
2017-07-26T18:57:10.598Z,16.21
2017-07-26T18:59:36.817Z,16.41
2017-07-26T19:02:03.106Z,16.43
2017-07-26T19:04:29.402Z,16.55
2017-07-26T19:06:55.609Z,16.47
2017-07-26T19:09:21.850Z,16.30
2017-07-26T19:11:48.116Z,16.18
2017-07-26T19:14:14.329Z,16.51
2017-07-26T19:16:41.518Z,16.38
2017-07-26T19:19:07.755Z,16.36
2017-07-26T19:21:33.945Z,16.43
2017-07-26T19:24:00.115Z,16.44
2017-07-26T19:26:27.076Z,16.44
2017-07-26T19:28:53.254Z,16.51
2017-07-26T19:31:34.409Z,16.49
2017-07-26T19:34:00.653Z,16.23
2017-07-26T19:36:30.219Z,16.44
2017-07-26T19:38:59.785Z,16.37
2017-07-26T19:41:29.416Z,16.24
2017-07-26T19:43:59.806Z,16.25
2017-07-26T19:46:29.418Z,16.27
2017-07-26T19:48:58.986Z,16.45
2017-07-26T19:51:28.290Z,16.38
2017-07-26T19:53:57.942Z,16.49
2017-07-26T19:56:27.507Z,16.45
2017-07-26T19:58:57.054Z,16.49
2017-07-26T20:01:26.274Z,16.55
2017-07-26T20:03:55.876Z,16.49
2017-07-26T20:06:25.420Z,16.41
2017-07-26T20:08:55.043Z,16.55
2017-07-26T20:11:24.584Z,16.52
2017-07-26T20:13:54.254Z,16.59
2017-07-26T20:16:23.834Z,16.55
2017-07-26T20:18:54.208Z,16.41
2017-07-26T20:21:23.429Z,16.46
2017-07-26T20:23:52.790Z,16.48
2017-07-26T20:26:22.463Z,16.65
2017-07-26T20:28:52.031Z,16.60
2017-07-26T20:31:21.609Z,16.53
2017-07-26T20:33:51.189Z,16.73
2017-07-26T20:36:21.566Z,16.75
2017-07-26T20:38:51.140Z,16.73
2017-07-26T20:41:21.447Z,16.64
2017-07-26T20:43:51.789Z,16.57
2017-07-26T20:46:20.993Z,16.79
2017-07-26T20:48:50.220Z,16.81
2017-07-26T20:51:20.625Z,16.80
2017-07-26T20:53:50.155Z,16.64
2017-07-26T20:56:19.716Z,16.70
2017-07-26T20:58:50.058Z,16.97
2017-07-26T21:01:19.602Z,16.80
2017-07-26T21:03:49.169Z,16.83
2017-07-26T21:06:18.896Z,16.80
2017-07-26T21:08:48.549Z,16.85
2017-07-26T21:11:18.127Z,16.89
2017-07-26T21:13:47.753Z,16.93
2017-07-26T21:16:17.307Z,16.88
2017-07-26T21:18:47.641Z,17.03
2017-07-26T21:21:17.255Z,16.91
2017-07-26T21:23:46.848Z,16.85
2017-07-26T21:26:16.372Z,17.00
2017-07-26T21:28:46.014Z,17.13
2017-07-26T21:31:15.599Z,17.27
2017-07-26T21:33:48.210Z,17.40
2017-07-26T21:36:17.788Z,17.36
2017-07-26T21:38:47.374Z,17.43
2017-07-26T21:41:16.925Z,17.30
2017-07-26T21:43:46.472Z,17.14
2017-07-26T21:46:16.861Z,17.21
2017-07-26T21:48:46.438Z,17.23
2017-07-26T21:51:15.639Z,17.35
2017-07-26T21:53:45.207Z,17.32
2017-07-26T21:56:15.726Z,17.51
2017-07-26T21:58:46.092Z,17.61
2017-07-26T22:01:15.706Z,17.49
2017-07-26T22:03:45.248Z,17.54
2017-07-26T22:06:14.443Z,17.54
2017-07-26T22:08:44.029Z,17.81
2017-07-26T22:11:13.591Z,18.02
2017-07-26T22:13:43.909Z,17.82
2017-07-26T22:16:14.212Z,17.87
2017-07-26T22:18:43.791Z,17.94
2017-07-26T22:21:13.338Z,17.89
2017-07-26T22:23:42.923Z,17.86
2017-07-26T22:26:12.468Z,17.92
2017-07-26T22:28:43.008Z,18.02
2017-07-26T22:31:13.327Z,18.09
2017-07-26T22:33:43.727Z,18.30
2017-07-26T22:36:13.330Z,18.37
2017-07-26T22:38:42.984Z,18.34
2017-07-26T22:41:12.550Z,18.32
2017-07-26T22:43:42.299Z,18.40
2017-07-26T22:46:11.880Z,18.22
2017-07-26T22:48:41.480Z,18.17
2017-07-26T22:51:11.050Z,18.18
2017-07-26T22:53:40.628Z,18.18
2017-07-26T22:56:10.158Z,18.19
2017-07-26T22:58:39.701Z,18.03
2017-07-26T23:01:09.280Z,18.02
2017-07-26T23:03:38.824Z,18.19
2017-07-26T23:06:08.391Z,18.32
2017-07-26T23:08:37.921Z,18.39
2017-07-26T23:11:07.831Z,18.48
2017-07-26T23:13:37.384Z,18.28
2017-07-26T23:16:07.713Z,18.23
2017-07-26T23:18:37.319Z,18.36
2017-07-26T23:21:06.872Z,18.35
2017-07-26T23:23:36.478Z,18.40
2017-07-26T23:26:06.012Z,18.34
2017-07-26T23:28:35.588Z,18.41
2017-07-26T23:31:05.168Z,18.29
2017-07-26T23:33:34.731Z,18.29
2017-07-26T23:36:04.309Z,18.42
2017-07-26T23:38:33.851Z,18.45
2017-07-26T23:41:03.219Z,18.40
2017-07-26T23:43:32.816Z,18.33
2017-07-26T23:46:02.365Z,18.26
2017-07-26T23:48:31.901Z,18.43
2017-07-26T23:51:01.476Z,18.49
2017-07-26T23:53:31.025Z,18.47
2017-07-26T23:56:00.595Z,18.61
2017-07-26T23:58:30.162Z,18.53
